Terminal Aerodrome Forecast
Issued by NWS Grand Forks, ND

Home | Current Version | Previous Version | Text Only | Print | Product List | Glossary Off
Versions: 1 2 3 4 5 6 7 8 9 10 11 12 13 14 15 16 17 18 19

760
FTUS43 KFGF 201738
TAFGFK
TAF
KGFK 201738Z 2018/2118 27005KT P6SM SCT120 BKN200
     FM210900 33005KT P6SM SCT050 BKN120
     FM211300 35007KT P6SM BKN035 OVC050=

USA.gov is the U.S. government's official web portal to all federal, state and local government web resources and services.